createdAt,value
2022-09-01T00:01:42.290Z,15.20
2022-09-01T00:04:12.869Z,15.10
2022-09-01T00:06:41.051Z,15.10
2022-09-01T00:09:11.623Z,14.90
2022-09-01T00:11:40.406Z,15.00
2022-09-01T00:14:29.683Z,15.10
2022-09-01T00:16:58.843Z,14.90
2022-09-01T00:19:25.666Z,14.80
2022-09-01T00:21:52.634Z,14.80
2022-09-01T00:24:19.914Z,14.50
2022-09-01T00:26:47.678Z,14.60
2022-09-01T00:29:15.597Z,15.10
2022-09-01T00:31:42.742Z,14.90
2022-09-01T00:34:10.009Z,14.70
2022-09-01T00:36:37.250Z,14.70
2022-09-01T00:41:34.930Z,14.50
2022-09-01T00:44:05.562Z,14.50
2022-09-01T00:46:37.015Z,14.50
2022-09-01T00:49:27.147Z,14.50
2022-09-01T00:51:59.148Z,14.50
2022-09-01T00:54:30.877Z,14.50
2022-09-01T00:56:58.638Z,14.50
2022-09-01T00:59:26.807Z,14.40
2022-09-01T01:01:55.270Z,14.40
2022-09-01T01:04:23.056Z,14.40
2022-09-01T01:06:59.025Z,14.40
2022-09-01T01:09:29.762Z,14.30
2022-09-01T01:11:59.500Z,14.30
2022-09-01T01:14:32.550Z,14.30
2022-09-01T01:17:01.195Z,14.30
2022-09-01T01:20:01.252Z,14.20
2022-09-01T01:23:03.830Z,14.30
2022-09-01T01:25:33.047Z,14.20
2022-09-01T01:28:18.866Z,14.10
2022-09-01T01:30:52.259Z,14.10
2022-09-01T01:33:21.857Z,14.10
2022-09-01T01:35:52.363Z,14.10
2022-09-01T01:38:23.618Z,14.10
2022-09-01T01:40:51.942Z,14.00
2022-09-01T01:43:23.344Z,14.00
2022-09-01T01:45:53.688Z,14.00
2022-09-01T01:48:24.625Z,14.00
2022-09-01T01:50:58.181Z,14.00
2022-09-01T01:53:25.456Z,13.90
2022-09-01T01:55:52.483Z,13.90
2022-09-01T01:58:21.699Z,13.90
2022-09-01T02:00:51.948Z,13.90
2022-09-01T02:03:22.301Z,13.80
2022-09-01T02:05:51.439Z,14.20
2022-09-01T02:08:21.011Z,14.00
2022-09-01T02:10:50.407Z,13.90
2022-09-01T02:13:19.782Z,13.80
2022-09-01T02:15:53.926Z,14.00
2022-09-01T02:18:28.621Z,14.40
2022-09-01T02:20:59.121Z,13.70
2022-09-01T02:23:26.226Z,13.60
2022-09-01T02:26:17.454Z,13.50
2022-09-01T02:28:54.212Z,13.50
2022-09-01T02:31:23.799Z,13.40
2022-09-01T02:33:51.084Z,13.40
2022-09-01T02:36:19.813Z,13.50
2022-09-01T02:38:53.336Z,13.50
2022-09-01T02:41:27.298Z,13.50
2022-09-01T02:43:54.377Z,13.50
2022-09-01T02:46:24.619Z,13.70
2022-09-01T02:48:52.735Z,13.40
2022-09-01T02:51:22.731Z,13.40
2022-09-01T02:53:52.991Z,13.30
2022-09-01T02:56:25.916Z,13.30
2022-09-01T02:58:53.513Z,13.20
2022-09-01T03:01:25.540Z,13.60
2022-09-01T03:03:55.893Z,13.20
2022-09-01T03:06:24.751Z,13.20
2022-09-01T03:08:54.829Z,13.10
2022-09-01T03:11:25.019Z,13.10
2022-09-01T03:13:52.690Z,13.10
2022-09-01T03:16:20.108Z,13.40
2022-09-01T03:18:47.236Z,13.10
2022-09-01T03:21:16.310Z,13.00
2022-09-01T03:23:45.509Z,13.00
2022-09-01T03:26:14.186Z,13.10
2022-09-01T03:28:41.866Z,12.90
2022-09-01T03:31:09.178Z,13.10
2022-09-01T03:33:37.021Z,13.10
2022-09-01T03:36:14.826Z,13.00
2022-09-01T03:38:44.282Z,13.00
2022-09-01T03:41:13.556Z,12.90
2022-09-01T03:43:45.966Z,12.90
2022-09-01T03:46:21.928Z,12.80
2022-09-01T03:48:55.873Z,12.90
2022-09-01T03:51:24.481Z,12.80
2022-09-01T03:53:56.967Z,12.90
2022-09-01T03:56:27.576Z,12.80
2022-09-01T03:59:00.456Z,13.00
2022-09-01T04:01:29.714Z,12.70
2022-09-01T04:03:57.313Z,12.90
2022-09-01T04:06:24.707Z,12.90
2022-09-01T04:09:03.142Z,12.90
2022-09-01T04:11:32.007Z,12.80
2022-09-01T04:13:59.383Z,12.60
2022-09-01T04:16:48.313Z,12.70
2022-09-01T04:19:20.558Z,12.70
2022-09-01T04:21:52.394Z,12.60
2022-09-01T04:24:20.702Z,12.60
2022-09-01T04:26:50.010Z,12.60
2022-09-01T04:29:19.491Z,12.60
2022-09-01T04:31:52.291Z,12.60
2022-09-01T04:34:24.172Z,12.50
2022-09-01T04:36:54.637Z,12.50
2022-09-01T04:39:22.408Z,12.50
2022-09-01T04:41:50.671Z,12.60
2022-09-01T04:44:19.340Z,12.50
2022-09-01T04:46:50.654Z,12.40
2022-09-01T04:49:22.330Z,12.40
2022-09-01T04:51:53.882Z,12.40
2022-09-01T04:54:23.046Z,12.40
2022-09-01T04:56:51.434Z,12.40
2022-09-01T04:59:22.192Z,12.40
2022-09-01T05:01:50.999Z,12.40
2022-09-01T05:04:19.807Z,12.40
2022-09-01T05:06:49.662Z,12.40
2022-09-01T05:09:19.003Z,12.50
2022-09-01T05:11:48.638Z,12.40
2022-09-01T05:14:19.359Z,12.50
2022-09-01T05:16:47.172Z,12.50
2022-09-01T05:19:17.708Z,12.50
2022-09-01T05:21:46.507Z,12.60
2022-09-01T05:24:19.838Z,12.60
2022-09-01T05:26:47.569Z,12.60
2022-09-01T05:29:17.889Z,12.70
2022-09-01T05:31:50.320Z,12.90
2022-09-01T05:34:26.499Z,12.80
2022-09-01T05:36:59.206Z,12.90
2022-09-01T05:39:27.369Z,13.00
2022-09-01T05:41:54.534Z,13.00
2022-09-01T05:44:27.673Z,13.10
2022-09-01T05:46:55.917Z,13.20
2022-09-01T05:49:24.833Z,13.20
2022-09-01T05:51:53.384Z,13.30
2022-09-01T05:54:36.168Z,13.40
2022-09-01T05:57:23.324Z,13.50
2022-09-01T05:59:54.211Z,13.60
2022-09-01T06:02:23.739Z,13.60
2022-09-01T06:04:53.029Z,13.80
2022-09-01T06:07:25.435Z,14.00
2022-09-01T06:09:53.919Z,14.10
2022-09-01T06:12:25.286Z,14.10
2022-09-01T06:14:56.791Z,14.20
2022-09-01T06:17:36.717Z,14.20
2022-09-01T06:20:11.115Z,14.30
2022-09-01T06:22:40.560Z,15.00
2022-09-01T06:25:14.474Z,14.50
2022-09-01T06:27:45.197Z,14.60
2022-09-01T06:30:48.796Z,15.20
2022-09-01T06:33:17.956Z,14.80
2022-09-01T06:35:47.746Z,15.90
2022-09-01T06:38:20.939Z,16.40
2022-09-01T06:40:51.159Z,17.10
2022-09-01T06:43:25.894Z,18.80
2022-09-01T06:45:55.658Z,19.00
2022-09-01T06:48:31.452Z,19.80
2022-09-01T06:51:21.724Z,20.70
2022-09-01T06:53:53.411Z,21.50
2022-09-01T06:56:23.338Z,22.40
2022-09-01T06:58:53.873Z,22.40
2022-09-01T07:01:29.227Z,23.70
2022-09-01T07:03:59.859Z,23.70
2022-09-01T07:12:28.942Z,25.70
2022-09-01T07:21:02.857Z,26.60
2022-09-01T07:23:27.737Z,27.60
2022-09-01T07:26:02.741Z,27.40
2022-09-01T07:39:51.923Z,28.00
2022-09-01T07:47:59.499Z,28.40
2022-09-01T07:53:29.942Z,28.80
2022-09-01T07:56:00.924Z,29.00
2022-09-01T07:58:33.747Z,29.00
2022-09-01T08:01:02.692Z,29.10
2022-09-01T08:03:30.686Z,29.20
2022-09-01T08:06:09.770Z,29.10
2022-09-01T08:08:38.630Z,29.20
2022-09-01T08:11:06.350Z,28.90
2022-09-01T08:13:41.659Z,28.80
2022-09-01T08:16:19.523Z,28.70
2022-09-01T08:18:56.668Z,28.40
2022-09-01T08:21:24.691Z,28.30
2022-09-01T08:23:53.489Z,28.30
2022-09-01T08:26:24.234Z,28.20
2022-09-01T08:28:55.420Z,28.20
2022-09-01T08:31:24.205Z,28.30
2022-09-01T08:33:52.266Z,28.20
2022-09-01T08:36:24.007Z,28.10
2022-09-01T08:38:53.470Z,28.30
2022-09-01T08:41:47.525Z,28.40
2022-09-01T08:45:03.609Z,28.40
2022-09-01T08:47:43.756Z,28.40
2022-09-01T08:50:29.296Z,28.40
2022-09-01T08:53:17.467Z,28.30
2022-09-01T08:55:49.470Z,28.10
2022-09-01T08:58:19.212Z,27.70
2022-09-01T09:00:57.919Z,27.40
2022-09-01T09:03:45.334Z,27.40
2022-09-01T09:06:40.722Z,27.50
2022-09-01T09:09:09.847Z,28.30
2022-09-01T09:11:59.358Z,27.90
2022-09-01T09:14:51.161Z,27.60
2022-09-01T09:17:23.238Z,27.40
2022-09-01T09:19:53.299Z,27.40
2022-09-01T09:22:21.482Z,27.40
2022-09-01T09:24:52.741Z,27.40
2022-09-01T09:27:41.251Z,27.20
2022-09-01T09:30:28.874Z,27.10
2022-09-01T09:35:57.783Z,26.80
2022-09-01T09:38:34.129Z,26.80
2022-09-01T09:41:25.667Z,26.70
2022-09-01T09:43:59.025Z,26.70
2022-09-01T09:46:35.470Z,26.70
2022-09-01T09:49:13.495Z,26.60
2022-09-01T09:51:47.839Z,26.60
2022-09-01T09:54:27.977Z,26.50
2022-09-01T09:57:04.890Z,26.50
2022-09-01T10:00:01.394Z,26.60
2022-09-01T10:02:51.115Z,26.50
2022-09-01T10:05:48.787Z,26.40
2022-09-01T10:08:49.324Z,26.20
2022-09-01T10:11:36.013Z,26.20
2022-09-01T10:14:35.822Z,26.30
2022-09-01T10:17:16.221Z,26.40
2022-09-01T10:20:06.212Z,26.50
2022-09-01T10:22:35.855Z,26.50
2022-09-01T10:25:05.696Z,26.40
2022-09-01T10:27:41.112Z,26.40
2022-09-01T10:30:20.260Z,26.10
2022-09-01T10:33:06.992Z,26.00
2022-09-01T10:35:44.927Z,26.30
2022-09-01T10:38:22.078Z,26.40
2022-09-01T10:41:07.719Z,26.40
2022-09-01T10:43:53.006Z,26.50
2022-09-01T10:46:26.554Z,26.60
2022-09-01T10:49:02.910Z,26.70
2022-09-01T10:51:38.952Z,26.60
2022-09-01T10:54:07.792Z,26.60
2022-09-01T10:56:51.625Z,26.80
2022-09-01T10:59:40.287Z,26.80
2022-09-01T11:02:24.845Z,26.60
2022-09-01T11:05:00.359Z,26.40
2022-09-01T11:08:00.116Z,26.30
2022-09-01T11:10:34.363Z,26.00
2022-09-01T11:13:32.522Z,25.70
2022-09-01T11:16:52.110Z,25.40
2022-09-01T11:19:39.889Z,25.60
2022-09-01T11:22:26.380Z,25.70
2022-09-01T11:25:12.613Z,25.80
2022-09-01T11:27:49.309Z,26.00
2022-09-01T11:30:25.502Z,26.10
2022-09-01T11:33:00.696Z,26.20
2022-09-01T11:35:32.223Z,26.50
2022-09-01T11:38:08.185Z,26.60
2022-09-01T11:40:37.520Z,26.70
2022-09-01T11:43:12.450Z,26.80
2022-09-01T11:45:54.633Z,26.90
2022-09-01T11:48:25.246Z,27.00
2022-09-01T11:51:03.249Z,27.30
2022-09-01T11:53:30.488Z,27.30
2022-09-01T11:56:22.096Z,27.10
2022-09-01T11:58:49.375Z,26.70
2022-09-01T12:01:20.798Z,26.50
2022-09-01T12:03:53.477Z,26.70
2022-09-01T12:06:24.533Z,26.80
2022-09-01T12:09:06.061Z,26.90
2022-09-01T12:11:39.323Z,26.90
2022-09-01T12:14:11.672Z,27.00
2022-09-01T12:16:42.468Z,27.10
2022-09-01T12:19:30.815Z,27.10
2022-09-01T12:22:17.001Z,27.20
2022-09-01T12:24:55.196Z,27.30
2022-09-01T12:27:30.649Z,27.40
2022-09-01T12:30:01.636Z,27.60
2022-09-01T12:32:28.794Z,27.70
2022-09-01T12:35:10.827Z,27.70
2022-09-01T12:37:41.403Z,27.80
2022-09-01T12:40:41.777Z,27.70
2022-09-01T12:43:08.823Z,27.70
2022-09-01T12:45:47.932Z,27.60
2022-09-01T12:48:31.491Z,27.60
2022-09-01T12:51:03.010Z,27.70
2022-09-01T12:53:36.684Z,27.60
2022-09-01T12:56:33.480Z,27.50
2022-09-01T12:59:35.983Z,27.60
2022-09-01T13:02:27.757Z,27.50
2022-09-01T13:04:55.052Z,27.40
2022-09-01T13:07:25.140Z,27.40
2022-09-01T13:09:52.074Z,27.40
2022-09-01T13:12:21.691Z,27.50
2022-09-01T13:14:48.933Z,27.60
2022-09-01T13:17:16.461Z,27.70
2022-09-01T13:19:46.239Z,27.50
2022-09-01T13:22:13.235Z,27.30
2022-09-01T13:27:26.681Z,27.70
2022-09-01T13:29:54.566Z,27.60
2022-09-01T13:32:22.850Z,27.40
2022-09-01T13:34:53.948Z,27.50
2022-09-01T13:39:50.016Z,27.40
2022-09-01T13:42:17.799Z,27.40
2022-09-01T13:44:49.621Z,27.30
2022-09-01T13:47:33.476Z,27.30
2022-09-01T13:50:11.050Z,27.40
2022-09-01T13:52:40.637Z,27.60
2022-09-01T13:55:10.775Z,27.80
2022-09-01T13:57:38.525Z,27.70
2022-09-01T14:00:10.957Z,27.40
2022-09-01T14:02:49.115Z,27.30
2022-09-01T14:05:23.996Z,27.30
2022-09-01T14:07:51.892Z,27.40
2022-09-01T14:10:20.601Z,27.40
2022-09-01T14:12:49.001Z,27.50
2022-09-01T14:15:26.977Z,27.50
2022-09-01T14:18:01.760Z,27.50
2022-09-01T14:20:38.099Z,27.50
2022-09-01T14:23:13.646Z,27.60
2022-09-01T14:25:51.498Z,27.50
2022-09-01T14:28:29.961Z,27.40
2022-09-01T14:31:29.364Z,27.30
2022-09-01T14:34:11.977Z,27.20
2022-09-01T14:36:47.548Z,27.20
2022-09-01T14:39:25.320Z,27.10
2022-09-01T14:42:00.421Z,26.90
2022-09-01T14:44:56.884Z,26.90
2022-09-01T14:47:28.129Z,26.90
2022-09-01T14:49:58.944Z,26.90
2022-09-01T14:52:25.859Z,27.00
2022-09-01T14:54:53.259Z,27.20
2022-09-01T14:57:37.139Z,27.30
2022-09-01T15:00:12.237Z,27.40
2022-09-01T15:02:40.969Z,27.40
2022-09-01T15:05:09.254Z,27.30
2022-09-01T15:07:36.818Z,27.30
2022-09-01T15:10:09.991Z,27.20
2022-09-01T15:12:50.449Z,27.20
2022-09-01T15:15:20.669Z,27.20
2022-09-01T15:17:53.004Z,27.20
2022-09-01T15:20:39.110Z,27.20
2022-09-01T15:23:06.776Z,27.00
2022-09-01T15:25:34.158Z,26.90
2022-09-01T15:28:03.722Z,26.90
2022-09-01T15:30:31.599Z,26.80
2022-09-01T15:32:58.672Z,26.70
2022-09-01T15:35:28.683Z,26.70
2022-09-01T15:37:56.312Z,26.70
2022-09-01T15:40:24.940Z,26.70
2022-09-01T15:43:34.057Z,26.70
2022-09-01T15:46:04.780Z,26.50
2022-09-01T15:48:31.922Z,26.50
2022-09-01T15:51:29.275Z,26.50
2022-09-01T15:54:23.600Z,26.60
2022-09-01T15:56:58.293Z,26.60
2022-09-01T15:59:31.032Z,26.50
2022-09-01T16:01:58.916Z,26.50
2022-09-01T16:04:28.157Z,26.40
2022-09-01T16:06:56.761Z,26.50
2022-09-01T16:09:27.154Z,26.50
2022-09-01T16:11:55.272Z,26.50
2022-09-01T16:14:32.236Z,26.30
2022-09-01T16:17:26.948Z,26.30
2022-09-01T16:20:06.449Z,26.20
2022-09-01T16:23:05.024Z,26.30
2022-09-01T16:25:34.938Z,26.20
2022-09-01T16:28:46.223Z,26.00
2022-09-01T16:31:18.151Z,26.00
2022-09-01T16:33:59.683Z,26.00
2022-09-01T16:36:33.199Z,26.00
2022-09-01T16:39:24.619Z,26.00
2022-09-01T16:42:39.974Z,25.90
2022-09-01T16:45:56.612Z,25.80
2022-09-01T16:49:30.550Z,25.60
2022-09-01T16:53:33.192Z,25.50
2022-09-01T16:56:24.894Z,25.60
2022-09-01T17:02:49.591Z,26.00
2022-09-01T17:05:49.449Z,25.90
2022-09-01T17:12:34.410Z,25.60
2022-09-01T17:15:10.488Z,25.40
2022-09-01T17:18:01.700Z,25.20
2022-09-01T17:20:54.920Z,25.10
2022-09-01T17:23:34.920Z,24.90
2022-09-01T17:26:33.528Z,24.80
2022-09-01T17:33:17.209Z,24.60
2022-09-01T17:42:23.927Z,24.30
2022-09-01T17:45:29.882Z,24.00
2022-09-01T17:48:05.219Z,23.90
2022-09-01T17:51:01.074Z,23.80
2022-09-01T17:53:54.869Z,23.70
2022-09-01T17:56:40.750Z,23.70
2022-09-01T17:59:29.542Z,23.60
2022-09-01T18:02:16.332Z,23.50
2022-09-01T18:05:01.815Z,23.30
2022-09-01T18:07:38.736Z,23.10
2022-09-01T18:10:12.823Z,22.80
2022-09-01T18:12:46.900Z,22.70
2022-09-01T18:15:26.706Z,22.50
2022-09-01T18:18:27.688Z,22.40
2022-09-01T18:21:13.983Z,22.40
2022-09-01T18:23:43.083Z,22.10
2022-09-01T18:26:14.954Z,21.80
2022-09-01T18:28:46.922Z,21.70
2022-09-01T18:31:36.053Z,21.80
2022-09-01T18:34:30.926Z,21.40
2022-09-01T18:37:23.016Z,21.30
2022-09-01T18:40:29.029Z,21.20
2022-09-01T18:43:25.334Z,21.10
2022-09-01T18:52:44.636Z,20.80
2022-09-01T18:55:24.903Z,20.60
2022-09-01T18:58:14.503Z,20.50
2022-09-01T19:00:57.057Z,20.00
2022-09-01T19:03:41.560Z,20.30
2022-09-01T19:07:03.907Z,20.30
2022-09-01T19:09:43.855Z,20.20
2022-09-01T19:12:33.316Z,19.90
2022-09-01T19:15:18.447Z,20.10
2022-09-01T19:18:28.021Z,20.00
2022-09-01T19:21:17.739Z,19.90
2022-09-01T19:23:59.549Z,20.40
2022-09-01T19:26:37.457Z,19.70
2022-09-01T19:29:33.384Z,19.80
2022-09-01T19:32:09.286Z,19.50
2022-09-01T19:35:06.294Z,18.90
2022-09-01T19:37:33.986Z,19.60
2022-09-01T19:40:01.492Z,19.40
2022-09-01T19:42:30.960Z,19.20
2022-09-01T19:45:14.375Z,19.30
2022-09-01T19:48:10.690Z,19.30
2022-09-01T19:50:47.980Z,19.30
2022-09-01T19:53:55.670Z,19.10
2022-09-01T19:56:33.035Z,19.10
2022-09-01T19:59:28.251Z,18.80
2022-09-01T20:02:09.236Z,19.00
2022-09-01T20:04:42.323Z,19.00
2022-09-01T20:07:53.383Z,18.80
2022-09-01T20:10:38.617Z,18.80
2022-09-01T20:13:33.294Z,18.70
2022-09-01T20:16:17.825Z,18.60
2022-09-01T20:19:03.542Z,18.60
2022-09-01T20:21:32.652Z,18.50
2022-09-01T20:24:11.788Z,18.50
2022-09-01T20:27:00.481Z,18.30
2022-09-01T20:29:43.842Z,18.40
2022-09-01T20:32:39.710Z,18.30
2022-09-01T20:35:26.930Z,18.30
2022-09-01T20:38:06.839Z,18.50
2022-09-01T20:44:08.127Z,18.30
2022-09-01T20:46:35.429Z,18.60
2022-09-01T20:49:06.933Z,18.20
2022-09-01T20:51:47.798Z,18.50
2022-09-01T20:54:43.056Z,18.00
2022-09-01T20:57:23.181Z,17.80
2022-09-01T20:59:58.291Z,18.10
2022-09-01T21:02:29.871Z,18.20
2022-09-01T21:05:25.151Z,17.90
2022-09-01T21:08:29.659Z,17.90
2022-09-01T21:11:08.691Z,17.80
2022-09-01T21:13:57.256Z,17.80
2022-09-01T21:16:36.640Z,17.70
2022-09-01T21:19:22.539Z,17.60
2022-09-01T21:22:12.705Z,17.60
2022-09-01T21:24:42.355Z,17.60
2022-09-01T21:27:26.837Z,17.60
2022-09-01T21:30:10.044Z,17.60
2022-09-01T21:32:38.058Z,17.50
2022-09-01T21:35:08.895Z,17.50
2022-09-01T21:37:36.743Z,17.50
2022-09-01T21:40:05.645Z,17.50
2022-09-01T21:42:47.628Z,17.40
2022-09-01T21:45:17.496Z,17.40
2022-09-01T21:47:49.320Z,17.40
2022-09-01T21:50:19.564Z,17.30
2022-09-01T21:52:47.015Z,17.30
2022-09-01T21:55:24.591Z,17.30
2022-09-01T21:57:52.683Z,17.20
2022-09-01T22:00:33.380Z,17.20
2022-09-01T22:03:04.445Z,17.20
2022-09-01T22:05:33.748Z,17.20
2022-09-01T22:08:02.488Z,17.10
2022-09-01T22:10:32.101Z,17.10
2022-09-01T22:13:05.765Z,17.10
2022-09-01T22:15:42.954Z,17.10
2022-09-01T22:18:13.782Z,17.00
2022-09-01T22:20:41.448Z,16.80
2022-09-01T22:23:09.329Z,17.40
2022-09-01T22:25:43.159Z,16.80
2022-09-01T22:28:10.974Z,17.30
2022-09-01T22:30:48.485Z,17.10
2022-09-01T22:33:20.591Z,17.20
2022-09-01T22:35:51.276Z,16.90
2022-09-01T22:38:21.801Z,16.90
2022-09-01T22:40:59.905Z,16.80
2022-09-01T22:43:34.596Z,16.80
2022-09-01T22:46:06.504Z,17.10
2022-09-01T22:48:33.843Z,16.70
2022-09-01T22:51:07.244Z,16.80
2022-09-01T22:53:44.426Z,16.70
2022-09-01T22:56:17.085Z,16.70
2022-09-01T22:58:51.394Z,17.60
2022-09-01T23:01:22.079Z,16.70
2022-09-01T23:03:59.281Z,17.20
2022-09-01T23:06:31.923Z,16.00
2022-09-01T23:09:02.220Z,16.50
2022-09-01T23:11:30.293Z,16.50
2022-09-01T23:13:57.800Z,16.30
2022-09-01T23:16:27.463Z,16.40
2022-09-01T23:18:58.101Z,16.40
2022-09-01T23:21:29.115Z,16.40
2022-09-01T23:23:58.415Z,16.40
2022-09-01T23:26:30.587Z,16.30
2022-09-01T23:29:01.383Z,16.30
2022-09-01T23:31:33.508Z,16.20
2022-09-01T23:34:01.250Z,16.20
2022-09-01T23:36:30.323Z,15.80
2022-09-01T23:38:57.984Z,16.10
2022-09-01T23:41:32.147Z,16.20
2022-09-01T23:44:02.135Z,16.00
2022-09-01T23:46:33.152Z,16.10
2022-09-01T23:49:02.279Z,16.00
2022-09-01T23:51:30.820Z,15.80
2022-09-01T23:53:58.337Z,16.70
2022-09-01T23:56:28.828Z,16.30
2022-09-01T23:58:59.598Z,17.50
